Time;durP1;ratioP1;P1;durP2;ratioP2;P2;SDS_P1;SDS_P2;PMS_P1;PMS_P2;Temp;Humidity;BMP_temperature;BMP_pressure;BME280_temperature;BME280_humidity;BME280_pressure;Samples;Min_cycle;Max_cycle;Signal;HPM_P1;HPM_P2
2022/10/06 00:01:02;;;;;;;7.65;0.93;;;;;;;10.17;68.48;100713.72;5074549;28;20054;-42
2022/10/06 00:03:29;;;;;;;5.80;1.42;;;;;;;10.15;68.68;100710.25;5080630;28;20051;-42
2022/10/06 00:06:00;;;;;;;4.03;0.63;;;;;;;10.13;68.57;100712.81;5079691;28;20295;-42
2022/10/06 00:08:29;;;;;;;4.22;0.85;;;;;;;10.11;69.18;100711.06;5079211;28;20047;-42
2022/10/06 00:10:56;;;;;;;6.57;0.45;;;;;;;10.10;68.51;100711.94;5079135;28;20040;-43
2022/10/06 00:13:24;;;;;;;4.68;0.80;;;;;;;10.07;68.51;100715.38;5077871;28;20705;-42
2022/10/06 00:15:51;;;;;;;5.18;0.95;;;;;;;10.03;69.10;100711.84;5079014;28;20553;-42
2022/10/06 00:18:18;;;;;;;3.63;0.55;;;;;;;10.02;69.22;100723.06;5076735;28;20059;-42
2022/10/06 00:20:44;;;;;;;5.65;0.60;;;;;;;10.01;69.09;100728.22;5079172;28;20086;-42
2022/10/06 00:23:11;;;;;;;2.40;0.60;;;;;;;9.99;68.73;100733.38;5077956;28;20048;-42
2022/10/06 00:25:38;;;;;;;3.08;0.77;;;;;;;9.98;69.01;100729.06;5078150;28;20144;-43
2022/10/06 00:28:04;;;;;;;4.32;0.57;;;;;;;9.96;69.07;100735.94;5077212;28;20135;-42
2022/10/06 00:30:31;;;;;;;1.25;0.45;;;;;;;9.93;69.21;100748.81;5078115;28;20124;-42
2022/10/06 00:33:02;;;;;;;6.20;0.73;;;;;;;9.92;69.43;100749.69;5079453;28;20040;-42
2022/10/06 00:35:32;;;;;;;3.75;0.45;;;;;;;9.88;69.08;100753.09;5092533;28;20058;-42
2022/10/06 00:38:00;;;;;;;3.83;0.40;;;;;;;9.88;68.92;100761.75;5074732;28;20094;-42
2022/10/06 00:40:27;;;;;;;3.17;0.43;;;;;;;9.86;69.10;100765.16;5079710;28;20047;-42
2022/10/06 00:42:59;;;;;;;5.72;0.57;;;;;;;9.84;69.01;100767.72;5081548;28;20414;-42
2022/10/06 00:48:20;;;;;;;3.92;1.25;;;;;;;9.77;69.70;100771.94;5060709;28;21210;-41
2022/10/06 00:50:47;;;;;;;4.85;1.90;;;;;;;9.80;69.16;100780.59;5008961;28;20133;-41
2022/10/06 00:53:15;;;;;;;5.38;2.00;;;;;;;9.77;69.36;100777.09;5021718;28;20051;-42
2022/10/06 00:55:42;;;;;;;3.47;1.48;;;;;;;9.76;69.08;100784.84;5032924;28;20151;-42
2022/10/06 00:58:09;;;;;;;2.83;2.63;;;;;;;9.72;69.60;100791.72;5025898;28;20128;-41
2022/10/06 01:00:36;;;;;;;3.28;1.08;;;;;;;9.73;69.49;100785.69;5033383;28;20073;-41
2022/10/06 01:03:13;;;;;;;2.70;0.43;;;;;;;9.71;69.72;100790.00;5029116;28;20638;-42
2022/10/06 01:05:45;;;;;;;6.38;1.98;;;;;;;9.68;69.58;100800.28;5023486;28;20540;-41
2022/10/06 01:08:13;;;;;;;4.85;1.98;;;;;;;9.66;69.34;100796.81;5042942;28;21029;-41
2022/10/06 01:10:39;;;;;;;4.97;1.80;;;;;;;9.65;69.27;100800.25;5036102;28;20043;-42
2022/10/06 01:13:09;;;;;;;4.82;2.00;;;;;;;9.64;69.92;100801.09;5027634;28;20111;-41
2022/10/06 01:15:42;;;;;;;5.63;1.50;;;;;;;9.61;69.75;100801.06;5034118;28;20131;-41
2022/10/06 01:18:14;;;;;;;3.42;1.95;;;;;;;9.60;69.37;100799.31;5029770;28;20140;-42
2022/10/06 01:20:50;;;;;;;2.45;1.42;;;;;;;9.58;69.27;100795.84;5014314;28;20129;-41
2022/10/06 01:23:17;;;;;;;5.18;1.65;;;;;;;9.56;69.83;100798.41;5023567;28;20493;-42
2022/10/06 01:25:44;;;;;;;4.70;2.05;;;;;;;9.54;70.05;100812.16;5034106;28;20051;-41
2022/10/06 01:28:12;;;;;;;2.40;1.60;;;;;;;9.50;69.66;100808.69;5025402;28;20136;-41
2022/10/06 01:30:45;;;;;;;3.22;1.38;;;;;;;9.50;70.21;100819.88;5023912;28;20090;-42
2022/10/06 01:33:11;;;;;;;3.28;1.33;;;;;;;9.49;69.76;100833.66;5053003;28;20052;-41
2022/10/06 01:35:38;;;;;;;8.75;2.92;;;;;;;9.45;70.10;100831.88;5022857;28;20136;-41
2022/10/06 01:38:04;;;;;;;2.60;1.30;;;;;;;9.45;70.07;100837.03;5024658;28;20140;-41
2022/10/06 01:40:31;;;;;;;3.78;1.77;;;;;;;9.44;70.17;100837.91;5023637;28;20039;-42
2022/10/06 01:42:58;;;;;;;8.45;1.98;;;;;;;9.44;69.70;100844.78;5022877;28;20077;-42
2022/10/06 01:45:24;;;;;;;6.50;2.08;;;;;;;9.41;69.88;100837.84;5023836;28;20141;-41
2022/10/06 01:47:51;;;;;;;4.07;1.92;;;;;;;9.38;69.78;100848.13;5025022;28;20045;-42
2022/10/06 01:50:18;;;;;;;7.95;2.80;;;;;;;9.35;69.92;100848.09;5025060;28;20056;-42
2022/10/06 01:52:44;;;;;;;4.05;2.15;;;;;;;9.32;70.31;100848.91;5025631;28;20058;-42
2022/10/06 01:55:11;;;;;;;3.03;1.35;;;;;;;9.29;70.10;100855.78;5021006;28;20812;-43
2022/10/06 01:57:40;;;;;;;6.43;3.30;;;;;;;9.27;70.34;100858.31;5023046;28;20057;-41
2022/10/06 02:00:07;;;;;;;3.97;1.92;;;;;;;9.24;70.35;100850.50;5012988;28;20064;-41
2022/10/06 02:02:34;;;;;;;3.67;1.48;;;;;;;9.20;70.56;100859.06;5016592;28;20062;-41
2022/10/06 02:05:02;;;;;;;8.05;1.85;;;;;;;9.18;69.65;100859.03;5014597;28;20045;-42
2022/10/06 02:07:29;;;;;;;3.55;0.45;;;;;;;9.15;70.25;100863.31;5012340;28;21947;-42
2022/10/06 02:09:55;;;;;;;3.30;1.63;;;;;;;9.11;69.97;100860.66;5011276;28;20129;-42
2022/10/06 02:12:22;;;;;;;5.43;1.95;;;;;;;9.08;70.71;100863.19;5012635;28;20167;-42
2022/10/06 02:14:49;;;;;;;4.00;1.70;;;;;;;9.08;70.64;100862.31;5008461;28;20045;-42
2022/10/06 02:17:15;;;;;;;1.55;1.33;;;;;;;9.03;70.79;100864.84;5010847;28;20038;-43
2022/10/06 02:19:42;;;;;;;8.93;1.65;;;;;;;9.00;70.90;100870.84;5016282;28;20052;-42
2022/10/06 02:22:09;;;;;;;3.50;1.45;;;;;;;8.98;70.72;100872.50;5020906;28;20125;-42
2022/10/06 02:24:35;;;;;;;4.80;2.13;;;;;;;8.96;70.87;100874.22;5015562;28;20535;-42
2022/10/06 02:27:02;;;;;;;4.32;1.58;;;;;;;8.94;70.35;100881.06;5018127;28;20049;-42
2022/10/06 02:29:29;;;;;;;5.20;2.50;;;;;;;8.92;71.17;100887.88;5011655;28;20104;-42
2022/10/06 02:31:55;;;;;;;2.22;1.67;;;;;;;8.90;70.94;100887.00;5016230;28;20084;-42
2022/10/06 02:34:22;;;;;;;5.85;1.52;;;;;;;8.88;70.70;100891.25;5017793;28;20124;-42
2022/10/06 02:36:48;;;;;;;4.15;1.65;;;;;;;8.88;70.58;100893.84;5005854;28;20052;-42
2022/10/06 02:39:15;;;;;;;4.30;1.60;;;;;;;8.85;71.19;100891.22;5013083;28;20088;-42
2022/10/06 02:41:42;;;;;;;5.15;1.80;;;;;;;8.84;70.83;100894.63;5015692;28;20129;-42
2022/10/06 02:44:08;;;;;;;5.03;1.77;;;;;;;8.83;71.17;100892.91;5013682;28;20277;-42
2022/10/06 02:46:35;;;;;;;3.78;2.35;;;;;;;8.80;71.25;100898.00;5008833;28;20531;-42
2022/10/06 02:49:02;;;;;;;7.47;2.47;;;;;;;8.76;71.89;100886.75;5009294;28;20057;-41
2022/10/06 02:51:30;;;;;;;2.10;1.70;;;;;;;8.76;70.85;100897.09;5012869;28;20053;-42
2022/10/06 02:53:56;;;;;;;3.25;1.55;;;;;;;8.76;71.16;100901.38;5009226;28;20092;-42
2022/10/06 02:56:24;;;;;;;4.90;1.38;;;;;;;8.74;70.82;100904.81;5019123;28;20149;-42
2022/10/06 02:58:52;;;;;;;3.70;1.33;;;;;;;8.73;70.75;100892.75;5012192;28;20136;-42
2022/10/06 03:01:22;;;;;;;6.45;1.60;;;;;;;8.72;71.65;100903.91;5015986;28;20128;-43
2022/10/06 03:03:49;;;;;;;6.72;1.73;;;;;;;8.70;71.77;100904.72;5012775;28;20076;-42
2022/10/06 03:06:22;;;;;;;5.05;1.75;;;;;;;8.69;71.76;100897.81;5019454;28;20069;-41
2022/10/06 03:08:52;;;;;;;4.55;1.92;;;;;;;8.69;71.59;100905.56;5013716;28;20073;-42
2022/10/06 03:11:20;;;;;;;1.95;1.50;;;;;;;8.67;71.46;100896.91;5009896;28;20404;-42
2022/10/06 03:13:48;;;;;;;7.72;1.63;;;;;;;8.66;71.35;100906.38;5013889;28;20057;-42
2022/10/06 03:16:19;;;;;;;4.93;1.77;;;;;;;8.67;70.78;100912.41;5029746;28;20070;-42
2022/10/06 03:18:48;;;;;;;5.45;1.40;;;;;;;8.66;72.33;100916.72;5014096;28;20073;-41
2022/10/06 03:21:16;;;;;;;6.28;1.95;;;;;;;8.66;71.00;100916.72;5014757;28;20046;-42
2022/10/06 03:23:45;;;;;;;5.90;1.90;;;;;;;8.63;71.20;100911.47;5044814;28;20132;-41
2022/10/06 03:26:13;;;;;;;5.43;2.13;;;;;;;8.61;71.28;100923.47;5004193;28;20141;-41
2022/10/06 03:28:40;;;;;;;4.43;1.70;;;;;;;8.59;71.80;100920.91;5010318;28;20128;-41
2022/10/06 03:31:07;;;;;;;3.85;1.52;;;;;;;8.59;71.47;100925.19;5011829;28;20163;-41
2022/10/06 03:33:34;;;;;;;3.85;1.58;;;;;;;8.57;71.45;100932.91;5011009;28;20115;-42
2022/10/06 03:36:03;;;;;;;6.38;1.77;;;;;;;8.56;72.00;100936.31;5004003;28;20144;-41
2022/10/06 03:38:31;;;;;;;3.50;1.73;;;;;;;8.56;72.08;100940.59;5006299;28;20081;-41
2022/10/06 03:41:03;;;;;;;4.93;1.77;;;;;;;8.55;71.41;100936.28;5004898;28;20115;-42
2022/10/06 03:43:30;;;;;;;4.07;2.10;;;;;;;8.55;71.79;100941.47;5011907;28;20050;-41
2022/10/06 03:45:59;;;;;;;2.42;2.05;;;;;;;8.55;71.94;100944.03;5004401;28;20080;-41
2022/10/06 03:48:27;;;;;;;6.93;0.80;;;;;;;8.55;71.50;100946.63;5011265;28;20734;-41
2022/10/06 03:50:57;;;;;;;5.40;2.35;;;;;;;8.54;71.79;100947.47;5036067;28;20077;-41
2022/10/06 03:53:26;;;;;;;8.07;1.67;;;;;;;8.53;72.16;100956.91;5035561;28;20121;-41
2022/10/06 03:58:41;;;;;;;5.10;0.50;;;;;;;8.53;72.31;100962.09;5017532;28;20835;-41
2022/10/06 04:01:11;;;;;;;3.40;0.45;;;;;;;8.54;71.45;100968.13;4999931;28;20505;-41
2022/10/06 04:03:39;;;;;;;10.23;0.98;;;;;;;8.52;72.12;100962.00;4997886;28;20053;-41
2022/10/06 04:06:08;;;;;;;3.53;0.52;;;;;;;8.53;71.62;100961.16;4999745;28;20553;-41
2022/10/06 04:08:35;;;;;;;7.93;0.60;;;;;;;8.53;71.62;100961.16;4996602;28;20626;-41
2022/10/06 04:11:08;;;;;;;3.05;0.60;;;;;;;8.53;72.12;100968.91;4994542;28;20042;-41
2022/10/06 04:13:35;;;;;;;3.75;1.05;;;;;;;8.53;72.30;100967.25;5008685;28;20074;-43
2022/10/06 04:18:59;;;;;;;4.45;0.68;;;;;;;8.52;71.98;100980.09;5044838;27;20806;-42
2022/10/06 04:21:26;;;;;;;4.90;0.82;;;;;;;8.52;71.99;100980.97;5015449;28;20148;-42
2022/10/06 04:23:55;;;;;;;4.30;0.40;;;;;;;8.53;72.29;100987.00;5016109;28;20050;-42
2022/10/06 04:26:23;;;;;;;5.80;0.93;;;;;;;8.54;71.67;100988.78;5035065;28;20129;-41
2022/10/06 04:28:50;;;;;;;1.50;0.68;;;;;;;8.51;71.71;100979.19;5022180;28;20048;-42
2022/10/06 04:33:55;;;;;;;6.15;0.55;;;;;;;8.53;72.60;100981.81;5026363;28;20405;-42
2022/10/06 04:36:24;;;;;;;2.42;0.47;;;;;;;8.52;72.60;100980.09;4975704;28;20070;-42
2022/10/06 04:38:55;;;;;;;5.93;0.40;;;;;;;8.53;72.12;100987.00;4981769;28;20359;-42
2022/10/06 04:41:22;;;;;;;;;;;;;;;8.38;72.16;100983.25;4966643;28;20137;-42
2022/10/06 04:43:51;;;;;;;5.00;0.60;;;;;;;8.46;72.07;100991.16;4985243;28;20389;-42
2022/10/06 04:46:19;;;;;;;6.85;0.47;;;;;;;8.48;72.70;100992.94;4985945;28;20046;-42
2022/10/06 04:49:06;;;;;;;4.13;0.40;;;;;;;8.47;72.18;101004.09;4995103;28;20046;-42
2022/10/06 04:51:33;;;;;;;3.10;0.30;;;;;;;8.47;72.49;100998.94;4984063;28;20869;-42
2022/10/06 04:54:01;;;;;;;4.88;0.40;;;;;;;8.44;72.24;100993.69;4984384;28;20130;-41
2022/10/06 04:56:30;;;;;;;3.90;0.77;;;;;;;8.48;72.58;101000.69;4992064;28;20101;-41
2022/10/06 04:58:57;;;;;;;3.72;0.55;;;;;;;8.48;72.58;101000.69;4992107;28;20134;-41
2022/10/06 05:01:27;;;;;;;3.13;0.32;;;;;;;8.47;71.96;100998.94;4986927;28;20038;-41
2022/10/06 05:03:56;;;;;;;3.67;0.45;;;;;;;8.48;72.10;100999.81;4986578;28;20134;-42
2022/10/06 05:09:05;;;;;;;8.73;0.55;;;;;;;8.51;72.01;101001.59;5060635;28;20782;-41
2022/10/06 05:11:32;;;;;;;6.55;0.98;;;;;;;8.49;73.13;101017.91;5005977;27;20561;-41
2022/10/06 05:13:59;;;;;;;2.28;0.65;;;;;;;8.49;72.55;101012.75;5002606;28;20069;-43
2022/10/06 05:16:28;;;;;;;3.70;0.25;;;;;;;8.52;72.09;101021.41;5009455;28;20140;-41
2022/10/06 05:18:56;;;;;;;8.68;0.93;;;;;;;8.51;72.13;101020.53;5012267;28;20050;-42
2022/10/06 05:21:27;;;;;;;5.93;0.40;;;;;;;8.52;72.30;101029.16;5005464;28;20137;-41
2022/10/06 05:23:53;;;;;;;4.30;0.70;;;;;;;8.52;72.78;101029.16;5007544;28;20132;-41
2022/10/06 05:26:22;;;;;;;7.50;1.00;;;;;;;8.53;72.61;101033.47;4998503;28;20119;-42
2022/10/06 05:28:49;;;;;;;4.35;0.40;;;;;;;8.53;72.14;101033.47;5014142;28;20137;-42
2022/10/06 05:33:54;;;;;;;8.30;1.25;;;;;;;8.55;71.86;101037.00;5047962;28;20413;-41
2022/10/06 05:36:23;;;;;;;4.78;1.30;;;;;;;8.53;71.89;101044.72;5019652;28;20141;-42
2022/10/06 05:38:50;;;;;;;7.80;1.42;;;;;;;8.52;72.50;101042.06;5009028;28;20140;-41
2022/10/06 05:43:53;;;;;;;5.10;0.80;;;;;;;8.52;72.93;101047.22;5029821;27;20425;-41
2022/10/06 05:46:23;;;;;;;3.20;0.50;;;;;;;8.51;72.86;101045.50;5015477;28;20068;-42
2022/10/06 05:48:54;;;;;;;5.47;0.80;;;;;;;8.49;72.46;101048.88;5016703;28;20202;-42
2022/10/06 05:51:23;;;;;;;7.18;0.65;;;;;;;8.49;72.78;101048.03;5010309;28;20042;-42
2022/10/06 05:53:56;;;;;;;4.68;0.50;;;;;;;8.48;72.89;101057.47;5002391;28;20061;-42
2022/10/06 05:56:27;;;;;;;4.32;0.60;;;;;;;8.49;72.07;101051.47;5014401;28;20073;-42
2022/10/06 05:58:55;;;;;;;4.88;0.60;;;;;;;8.46;72.23;101059.16;5014089;28;20078;-42
2022/10/06 06:04:01;;;;;;;7.40;1.70;;;;;;;8.48;72.17;101062.63;5056857;27;20406;-41
2022/10/06 06:06:32;;;;;;;10.52;1.20;;;;;;;8.48;72.94;101066.94;5017031;28;20567;-41
2022/10/06 06:09:02;;;;;;;8.88;3.55;;;;;;;8.47;73.02;101063.50;5019824;28;20081;-41
2022/10/06 06:11:30;;;;;;;3.00;1.33;;;;;;;8.48;72.98;101078.13;5020145;28;20144;-42
2022/10/06 06:13:59;;;;;;;7.55;1.48;;;;;;;8.48;73.23;101080.72;5036581;28;20628;-42
2022/10/06 06:16:27;;;;;;;8.35;1.67;;;;;;;8.47;72.75;101084.16;5039627;28;20045;-42
2022/10/06 06:18:54;;;;;;;4.20;1.15;;;;;;;8.51;72.13;101076.47;5033455;28;20045;-42
2022/10/06 06:21:21;;;;;;;4.40;0.90;;;;;;;8.52;72.76;101078.22;5036291;28;20140;-41
2022/10/06 06:23:48;;;;;;;5.53;0.70;;;;;;;8.52;72.95;101084.25;5043424;28;20132;-42
2022/10/06 06:26:22;;;;;;;5.85;1.02;;;;;;;8.54;72.42;101081.75;5042972;28;20053;-41
2022/10/06 06:28:50;;;;;;;3.72;1.38;;;;;;;8.54;72.82;101086.91;5040622;28;20053;-41
2022/10/06 06:33:55;;;;;;;7.28;1.95;;;;;;;8.60;73.09;101094.78;5025851;28;20400;-41
2022/10/06 06:36:28;;;;;;;4.25;1.45;;;;;;;8.64;72.23;101088.84;4970276;28;20140;-41
2022/10/06 06:38:57;;;;;;;10.63;2.58;;;;;;;8.65;72.67;101100.91;4975406;28;20050;-42
2022/10/06 06:41:30;;;;;;;5.15;2.47;;;;;;;8.69;72.61;101102.75;4967708;28;20078;-41
2022/10/06 06:43:58;;;;;;;5.85;1.95;;;;;;;8.72;72.07;101107.94;4969365;28;20146;-41
2022/10/06 06:46:30;;;;;;;9.30;2.58;;;;;;;8.78;72.18;101119.28;4972630;28;20066;-47
2022/10/06 06:49:03;;;;;;;7.45;2.08;;;;;;;8.82;71.93;101110.75;4965169;28;20063;-42
2022/10/06 06:51:32;;;;;;;5.28;1.42;;;;;;;8.86;72.74;101115.16;4966227;28;20089;-41
2022/10/06 06:54:01;;;;;;;8.02;2.22;;;;;;;8.91;72.50;101121.28;4969825;28;20050;-42
2022/10/06 06:56:33;;;;;;;4.63;1.63;;;;;;;8.95;72.73;101120.50;4966024;28;20470;-41
2022/10/06 06:59:02;;;;;;;7.10;2.38;;;;;;;8.99;71.91;101117.13;4967325;28;20121;-41
2022/10/06 07:01:31;;;;;;;6.78;1.88;;;;;;;9.03;71.83;101122.38;4952087;28;20485;-42
2022/10/06 07:03:58;;;;;;;9.75;2.10;;;;;;;9.06;72.21;101120.75;4966922;28;20057;-42
2022/10/06 07:06:27;;;;;;;3.33;1.35;;;;;;;9.13;72.22;101126.91;4968978;28;20461;-42
2022/10/06 07:08:56;;;;;;;7.45;1.73;;;;;;;9.16;72.52;101123.50;4966882;28;20082;-41
2022/10/06 07:11:28;;;;;;;5.18;1.67;;;;;;;9.23;72.11;101130.56;4966519;28;20047;-41
2022/10/06 07:13:57;;;;;;;8.07;2.28;;;;;;;9.29;71.71;101129.81;4966884;28;20609;-41
2022/10/06 07:30:17;;;;;;;13.43;1.30;;;;;;;10.09;71.33;101129.50;5046498;28;20424;-42
2022/10/06 07:32:45;;;;;;;7.10;2.25;;;;;;;10.05;71.89;101143.25;5020622;28;20049;-42
2022/10/06 07:35:12;;;;;;;4.40;2.65;;;;;;;10.11;72.19;101139.06;5019542;28;20136;-43
2022/10/06 07:37:39;;;;;;;7.88;2.10;;;;;;;10.20;72.34;101143.50;5012110;28;20147;-42
2022/10/06 07:40:07;;;;;;;10.77;0.98;;;;;;;10.31;71.97;101145.41;5010662;28;20081;-43
2022/10/06 07:42:47;;;;;;;11.65;3.83;;;;;;;10.41;72.15;101148.16;5010296;28;20140;-42
2022/10/06 07:48:05;;;;;;;7.25;2.22;;;;;;;10.63;71.48;101152.81;4997801;28;20050;-42
2022/10/06 07:50:32;;;;;;;4.72;1.70;;;;;;;10.75;71.71;101155.63;5003177;28;20081;-42
2022/10/06 07:53:03;;;;;;;5.38;0.65;;;;;;;10.86;71.70;101165.25;5006105;28;20503;-43
2022/10/06 07:55:30;;;;;;;6.85;2.35;;;;;;;10.96;70.89;101159.34;5008763;28;20049;-43
2022/10/06 07:57:57;;;;;;;16.48;2.95;;;;;;;11.07;70.62;101171.59;5006483;28;20124;-42
2022/10/06 08:00:25;;;;;;;3.70;1.90;;;;;;;11.16;71.07;101163.91;5001746;28;20128;-42
2022/10/06 08:02:53;;;;;;;7.97;2.03;;;;;;;11.27;70.84;101167.53;5004183;28;20058;-42
2022/10/06 08:05:20;;;;;;;6.22;1.88;;;;;;;11.50;71.20;101179.91;5009560;28;20052;-43
2022/10/06 08:07:47;;;;;;;6.90;0.80;;;;;;;11.81;70.09;101171.56;5008773;28;20420;-44
2022/10/06 08:10:17;;;;;;;13.05;2.25;;;;;;;12.27;69.61;101181.56;5007157;28;20100;-43
2022/10/06 08:12:43;;;;;;;6.47;0.73;;;;;;;12.99;69.07;101179.44;5008499;28;20046;-43
2022/10/06 08:15:11;;;;;;;11.32;2.33;;;;;;;13.84;68.14;101167.63;5013629;28;20054;-43
2022/10/06 08:17:38;;;;;;;5.65;1.90;;;;;;;14.79;66.39;101172.84;5008217;28;20583;-43
2022/10/06 08:20:08;;;;;;;8.82;1.30;;;;;;;15.61;63.88;101176.00;5012632;28;20475;-43
2022/10/06 08:22:35;;;;;;;5.90;1.75;;;;;;;16.36;62.59;101172.88;5002856;28;20050;-43
2022/10/06 08:25:02;;;;;;;8.90;3.10;;;;;;;17.05;60.50;101178.28;5013485;28;20085;-43
2022/10/06 08:27:34;;;;;;;10.75;2.30;;;;;;;17.65;59.01;101181.94;5004463;28;20085;-42
2022/10/06 08:30:02;;;;;;;6.53;1.65;;;;;;;18.27;57.66;101174.03;5004091;28;20050;-41
2022/10/06 08:32:29;;;;;;;7.47;1.88;;;;;;;18.79;56.50;101173.97;5006513;28;20081;-44
2022/10/06 08:34:55;;;;;;;8.45;2.10;;;;;;;19.24;55.54;101176.63;5001203;28;20042;-42
2022/10/06 08:37:26;;;;;;;5.85;1.95;;;;;;;19.62;54.88;101176.66;5015636;28;20124;-43
2022/10/06 08:39:53;;;;;;;13.25;1.85;;;;;;;20.10;53.52;101177.31;5000047;28;20441;-42
2022/10/06 08:42:41;;;;;;;16.38;2.30;;;;;;;20.60;52.76;101185.75;4997399;28;20445;-42
2022/10/06 08:45:14;;;;;;;6.95;2.33;;;;;;;20.94;51.79;101184.88;4986950;28;20077;-43
2022/10/06 08:47:51;;;;;;;9.95;2.15;;;;;;;21.11;51.13;101188.78;4988596;28;20058;-44
2022/10/06 08:50:20;;;;;;;7.90;1.48;;;;;;;21.19;50.55;101184.16;5000508;28;20456;-42
2022/10/06 08:53:04;;;;;;;7.43;2.50;;;;;;;21.38;51.59;101195.00;4992793;28;20398;-42
2022/10/06 08:55:40;;;;;;;9.00;2.60;;;;;;;21.80;51.10;101188.50;4993092;28;20137;-42
2022/10/06 09:00:44;;;;;;;4.85;0.88;;;;;;;22.64;48.56;101186.63;5036686;27;20435;-43
2022/10/06 09:03:21;;;;;;;7.32;1.27;;;;;;;23.00;48.47;101188.84;5010060;28;20493;-44
2022/10/06 09:05:55;;;;;;;8.30;1.17;;;;;;;23.45;47.54;101199.56;5003132;28;20053;-44
2022/10/06 09:13:44;;;;;;;4.45;1.10;;;;;;;24.74;46.01;101206.69;5038748;28;20390;-45
2022/10/06 09:16:18;;;;;;;6.30;1.38;;;;;;;25.07;45.30;101197.31;5006778;28;20053;-45
2022/10/06 09:21:32;;;;;;;9.35;2.88;;;;;;;25.48;43.90;101191.00;5051409;27;20923;-44
2022/10/06 09:24:06;;;;;;;8.25;3.28;;;;;;;25.74;42.87;101188.94;5012091;28;20057;-45
2022/10/06 09:26:33;;;;;;;7.57;2.22;;;;;;;25.96;43.30;101190.50;5018532;28;20050;-44
2022/10/06 09:29:00;;;;;;;8.77;2.40;;;;;;;26.10;41.85;101193.34;5015144;28;20065;-45
2022/10/06 09:31:30;;;;;;;6.53;1.95;;;;;;;26.30;42.39;101195.03;5019312;28;20116;-45
2022/10/06 09:34:03;;;;;;;6.63;2.05;;;;;;;26.47;41.82;101192.44;5012119;28;20054;-45
2022/10/06 09:36:30;;;;;;;6.85;2.97;;;;;;;26.71;42.00;101194.75;5016649;28;20137;-44
2022/10/06 09:38:58;;;;;;;8.25;2.97;;;;;;;26.95;42.12;101196.06;5018484;28;20080;-45
2022/10/06 09:41:44;;;;;;;5.53;1.92;;;;;;;27.22;40.62;101197.34;5001395;28;20149;-45
2022/10/06 09:44:29;;;;;;;11.55;2.58;;;;;;;27.43;40.48;101189.97;5014407;28;20060;-45
2022/10/06 09:46:56;;;;;;;10.07;2.97;;;;;;;27.58;41.38;101187.38;5014385;28;20046;-46
2022/10/06 09:49:25;;;;;;;10.55;2.22;;;;;;;27.77;39.65;101191.69;5016989;28;20612;-47
2022/10/06 09:54:33;;;;;;;9.82;1.85;;;;;;;28.05;39.95;101187.41;5038285;28;20408;-46
2022/10/06 09:57:08;;;;;;;8.77;1.35;;;;;;;28.07;39.19;101186.38;4989049;28;20070;-45
2022/10/06 09:59:40;;;;;;;8.77;1.45;;;;;;;28.09;38.33;101191.59;4996682;28;20137;-45
2022/10/06 10:02:36;;;;;;;8.05;1.10;;;;;;;28.07;38.71;101193.53;4986190;28;20089;-48
2022/10/06 10:05:15;;;;;;;6.80;1.23;;;;;;;28.00;39.27;101193.03;5004813;28;20116;-47
2022/10/06 10:07:41;;;;;;;17.80;3.78;;;;;;;28.14;39.06;101189.56;5002372;28;20073;-48
2022/10/06 10:10:24;;;;;;;26.50;4.78;;;;;;;28.35;39.26;101202.56;4991205;28;20082;-46
2022/10/06 10:12:51;;;;;;;;;;;;;;;28.31;38.50;101195.69;4992643;28;20065;-44
2022/10/06 10:15:25;;;;;;;8.95;1.42;;;;;;;28.10;38.87;101190.69;4986678;28;19926;-44
2022/10/06 10:17:55;;;;;;;13.50;4.10;;;;;;;28.05;39.16;101195.41;4991852;28;20133;-45
2022/10/06 10:26:16;;;;;;;8.55;2.63;;;;;;;27.78;38.07;101190.75;5066697;27;20402;-46
2022/10/06 10:34:29;;;;;;;6.75;1.25;;;;;;;27.58;38.58;101200.69;5046219;27;20390;-46
2022/10/06 10:37:09;;;;;;;13.00;2.63;;;;;;;27.55;38.55;101198.19;5013910;28;20137;-45
2022/10/06 10:39:42;;;;;;;7.07;1.98;;;;;;;27.39;38.84;101198.22;5016944;28;20586;-45
2022/10/06 10:42:17;;;;;;;8.75;1.15;;;;;;;26.95;38.56;101193.41;5017753;28;20049;-51
2022/10/06 10:44:55;;;;;;;9.07;2.40;;;;;;;26.52;38.58;101214.31;5020532;28;20064;-45
2022/10/06 10:47:29;;;;;;;7.35;1.63;;;;;;;25.95;39.25;101205.59;5016397;28;20053;-45
2022/10/06 10:52:43;;;;;;;7.07;1.60;;;;;;;25.05;41.05;101200.03;5034866;27;20402;-46
2022/10/06 10:58:00;;;;;;;9.15;2.03;;;;;;;24.45;42.58;101200.88;5085209;27;20940;-45
2022/10/06 11:00:29;;;;;;;8.10;1.77;;;;;;;24.13;42.87;101202.19;5037519;28;20050;-43
2022/10/06 11:02:57;;;;;;;8.52;1.15;;;;;;;23.94;43.53;101207.31;5059408;28;20057;-45
2022/10/06 11:05:56;;;;;;;9.95;1.30;;;;;;;23.59;43.19;101205.19;5059557;28;20131;-43
2022/10/06 11:11:01;;;;;;;12.75;3.15;;;;;;;23.20;44.52;101189.91;5031022;28;20402;-44
2022/10/06 11:16:17;;;;;;;14.23;2.08;;;;;;;22.83;45.72;101187.69;5042022;28;20752;-43
2022/10/06 11:21:26;;;;;;;12.82;2.35;;;;;;;22.47;45.45;101180.16;5036318;28;20404;-43
2022/10/06 11:24:11;;;;;;;8.77;2.00;;;;;;;22.28;45.51;101195.72;4998972;28;20132;-45
2022/10/06 11:32:26;;;;;;;9.00;1.25;;;;;;;21.75;46.65;101190.38;5039990;27;20408;-45
2022/10/06 11:34:53;;;;;;;8.25;1.70;;;;;;;21.73;47.09;101197.47;5060016;28;20558;-44
2022/10/06 11:40:14;;;;;;;9.38;2.17;;;;;;;21.52;47.29;101186.66;5067674;27;20407;-45
2022/10/06 11:45:24;;;;;;;5.07;1.02;;;;;;;21.22;47.96;101184.06;5073122;27;20383;-44
2022/10/06 11:56:35;;;;;;;8.70;1.30;;;;;;;20.98;49.36;101188.25;5033011;27;20821;-44
2022/10/06 11:59:12;;;;;;;7.15;1.27;;;;;;;21.05;49.25;101185.38;5010006;28;20357;-43
2022/10/06 12:04:16;;;;;;;9.20;1.35;;;;;;;20.93;48.82;101185.75;5039739;27;20395;-43
2022/10/06 12:22:51;;;;;;;5.57;2.80;;;;;;;20.11;50.55;101154.53;5008662;28;20420;-43
2022/10/06 12:33:50;;;;;;;6.32;1.05;;;;;;;20.11;51.43;101146.66;5046802;27;20402;-43
2022/10/06 12:36:21;;;;;;;6.88;1.13;;;;;;;20.14;52.16;101151.84;5017055;28;20545;-44
2022/10/06 12:39:23;;;;;;;6.57;1.08;;;;;;;20.06;51.31;101148.53;5003941;28;20099;-43
2022/10/06 12:42:15;;;;;;;4.15;1.38;;;;;;;20.14;51.90;101147.44;4996055;28;20129;-43
2022/10/06 12:44:50;;;;;;;9.63;1.45;;;;;;;20.16;51.55;101145.63;4993181;28;20137;-43
2022/10/06 12:47:27;;;;;;;5.95;1.67;;;;;;;20.21;51.64;101148.16;4998050;28;20137;-45
2022/10/06 12:58:01;;;;;;;11.15;3.33;;;;;;;20.33;51.50;101136.44;5076538;27;20397;-43
2022/10/06 13:03:16;;;;;;;9.98;1.00;;;;;;;20.14;51.74;101141.31;5091913;27;20393;-42
2022/10/06 13:05:50;;;;;;;8.93;1.08;;;;;;;20.04;51.95;101124.91;5040188;28;20077;-42
2022/10/06 13:08:27;;;;;;;12.05;2.80;;;;;;;20.01;52.12;101120.59;5042188;28;20077;-42
2022/10/06 13:13:53;;;;;;;10.10;1.67;;;;;;;19.94;52.53;101129.50;5047853;27;20412;-42
2022/10/06 13:16:23;;;;;;;17.00;3.92;;;;;;;19.91;52.53;101119.94;5029963;28;20079;-42
2022/10/06 13:18:55;;;;;;;9.98;1.33;;;;;;;19.91;52.58;101121.69;5043014;28;20120;-42
2022/10/06 13:21:22;;;;;;;13.60;2.53;;;;;;;19.98;53.01;101112.75;5037308;28;20049;-42
2022/10/06 13:23:50;;;;;;;8.93;1.50;;;;;;;20.09;52.73;101111.66;5039954;28;20121;-43
2022/10/06 13:28:56;;;;;;;10.00;2.80;;;;;;;20.08;52.52;101120.41;5087500;27;20420;-45
2022/10/06 13:31:26;;;;;;;13.48;2.80;;;;;;;20.06;52.28;101111.72;5076500;28;20051;-43
2022/10/06 13:33:58;;;;;;;11.82;3.17;;;;;;;20.03;52.92;101112.66;5072150;28;20048;-42
2022/10/06 13:36:27;;;;;;;78.47;8.85;;;;;;;19.98;52.90;101123.25;5051893;28;20139;-42
2022/10/06 13:38:54;;;;;;;49.33;5.82;;;;;;;19.95;52.52;101125.09;5037109;28;20128;-43
2022/10/06 13:41:44;;;;;;;7.63;3.25;;;;;;;19.88;52.74;101119.13;5034997;28;20051;-42
2022/10/06 13:46:50;;;;;;;7.78;1.08;;;;;;;19.78;52.96;101119.38;5044472;27;20408;-42
2022/10/06 13:49:30;;;;;;;14.57;3.30;;;;;;;19.68;53.34;101112.59;5036470;28;20059;-42
2022/10/06 13:52:01;;;;;;;4.20;0.93;;;;;;;19.64;53.17;101108.31;5032217;28;20132;-44
2022/10/06 13:57:44;;;;;;;8.30;1.25;;;;;;;19.58;53.36;101095.31;5099746;27;20400;-43
2022/10/06 14:02:54;;;;;;;5.43;1.92;;;;;;;19.63;53.08;101091.66;5052745;28;20403;-43
2022/10/06 14:08:02;;;;;;;12.07;2.13;;;;;;;19.63;53.38;101083.78;5010870;28;20407;-42
2022/10/06 14:10:42;;;;;;;16.17;3.20;;;;;;;19.64;53.80;101092.53;4978917;28;20094;-41
2022/10/06 14:13:16;;;;;;;8.18;1.05;;;;;;;19.63;53.58;101093.44;4982545;28;20557;-42
2022/10/06 14:15:50;;;;;;;10.57;1.90;;;;;;;19.61;53.60;101097.88;4981964;28;20073;-42